Templeton, Pennsylvania
Current Conditions -  °F | °C
As of 8:15 PM on Friday 28 Nov 2014 (Local Time) from KBTP Reporting Station
Clear Clear  
Wind Chill: 19°   Ceiling: Unl
Heat Index: 25°   Visibility: 10mi
Dew Point: 16°   Wind: 5mph
Humidity: 69%   Direction: 160°SSE
Pressure: 30.21"   Gusts: NA
Location:  40.92°N, 79.46°W
Report Text: KBTP 290115Z AUTO 16004KT 10SM CLR M04/M09 A3021 RMK AO1
Loading
Personal Weather Stations






























Interactive Weather Map New forecast layout! Learn more

10-Day Weather Forecast

Advertisements
Track Severe Weather on mobile